Cou Falls, Iowa
Current Conditions -  °F | °C
As of 10:52 AM on Friday 24 Oct 2014 (Local Time) from KCID Reporting Station
Moderate Fog Moderate Fog  
Wind Chill: 51°   Ceiling: 200
Heat Index: 51°   Visibility: 0.06mi
Dew Point: 51°   Wind: 10mph
Humidity: 100%   Direction: 160°SSE
Pressure: 30.02"   Gusts: NA
Location:  41.8309°N, 91.7193°W
Report Text: KCID 241552Z 16009KT 1/16SM FG VV002 11/11 A3002 RMK AO2 SLP169 T01060106
Loading
Personal Weather Stations






























Interactive Weather Map
Tropical Storm Tracking
New forecast layout! Learn more

10-Day Weather Forecast

Advertisements
Track Severe Weather on mobile